Terminal Aerodrome Forecast
Issued by NWS Newport/Morehead City, NC

Home | Current Version | Previous Version | Graphics & Text | Print | Product List | Glossary On
Versions: 1 2 3 4 5 6 7 8 9 10 11 12 13 14 15 16 17 18 19 20 21 22 23 24 25 26 27
000
FTUS42 KMHX 150500 AAA
TAFEWN
TAF AMD
KEWN 150542Z 1506/1606 06005KT P6SM BKN030
     FM150900 04005KT P6SM OVC025
     FM151600 04005KT P6SM BKN050
     FM152000 09005KT P6SM BKN050
     FM152300 15005KT P6SM BKN100=

USA.gov is the U.S. government's official web portal to all federal, state and local government web resources and services.